AQQ10 IFIS: Internet Flight Information System
logo dgac
Martes 21 de Septiembre del 2021
Buscar por aerodromo o helipuerto
Ingrese nombre de aeródromo, localidad o designador OACI:
METAR del 21-09-2021 a las 00:00 UTC
Para mayor información visite www.meteochile.cl
METAR SCGZ 210000Z NIL
METAR del 20-09-2021 a las 20:00 UTC
Para mayor información visite www.meteochile.cl
METAR SCGZ 202000Z 33007KT 9999 FEW036 OVC080 08/01 Q1008
Viento: dirección 330 grados, velocidad 7 nudos
Visibilidad: 10 km o más
Nubes: Escasa nubosidad a 3600 pies sobre el nivel del aeródromo
Nubes: Cubierto a 8000 pies sobre el nivel del aeródromo
Temperatura: 8 °C
Rocío: 1 °C
Humedad_relativa: 61%
Presión: 1008 hPa
METAR del 20-09-2021 a las 19:00 UTC
Para mayor información visite www.meteochile.cl
METAR SCGZ 201900Z VRB02KT 9999 FEW036 OVC080 08/01 Q1008
Viento: dirección variable, velocidad 2 nudos
Visibilidad: 10 km o más
Nubes: Escasa nubosidad a 3600 pies sobre el nivel del aeródromo
Nubes: Cubierto a 8000 pies sobre el nivel del aeródromo
Temperatura: 8 °C
Rocío: 1 °C
Humedad_relativa: 61%
Presión: 1008 hPa
METAR del 20-09-2021 a las 18:00 UTC
Para mayor información visite www.meteochile.cl
METAR SCGZ 201800Z VRB02KT 9999 SCT036 BKN050 OVC080 09/M00 Q1008
Viento: dirección variable, velocidad 2 nudos
Visibilidad: 10 km o más
Nubes: Nubosidad parcial a 3600 pies sobre el nivel del aeródromo
Nubes: Nublado a 5000 pies sobre el nivel del aeródromo
Nubes: Cubierto a 8000 pies sobre el nivel del aeródromo
Temperatura: 9 °C
Rocío: -0 °C
Humedad_relativa: 53%
Presión: 1008 hPa
METAR del 20-09-2021 a las 17:00 UTC
Para mayor información visite www.meteochile.cl
METAR SCGZ 201700Z VRB02KT 9999 SCT060 OVC080 08/M02 Q1009
Viento: dirección variable, velocidad 2 nudos
Visibilidad: 10 km o más
Nubes: Nubosidad parcial a 6000 pies sobre el nivel del aeródromo
Nubes: Cubierto a 8000 pies sobre el nivel del aeródromo
Temperatura: 8 °C
Rocío: -2 °C
Humedad_relativa: 49%
Presión: 1009 hPa
METAR del 20-09-2021 a las 16:00 UTC
Para mayor información visite www.meteochile.cl
METAR SCGZ 201600Z VRB01KT 9999 FEW040 SCT060 OVC080 06/M01 Q1009
Viento: dirección variable, velocidad 1 nudos
Visibilidad: 10 km o más
Nubes: Escasa nubosidad a 4000 pies sobre el nivel del aeródromo
Nubes: Nubosidad parcial a 6000 pies sobre el nivel del aeródromo
Nubes: Cubierto a 8000 pies sobre el nivel del aeródromo
Temperatura: 6 °C
Rocío: -1 °C
Humedad_relativa: 61%
Presión: 1009 hPa
METAR del 20-09-2021 a las 15:00 UTC
Para mayor información visite www.meteochile.cl
METAR SCGZ 201500Z VRB02KT 9999 FEW040 BKN060 OVC080 06/M01 Q1010
Viento: dirección variable, velocidad 2 nudos
Visibilidad: 10 km o más
Nubes: Escasa nubosidad a 4000 pies sobre el nivel del aeródromo
Nubes: Nublado a 6000 pies sobre el nivel del aeródromo
Nubes: Cubierto a 8000 pies sobre el nivel del aeródromo
Temperatura: 6 °C
Rocío: -1 °C
Humedad_relativa: 61%
Presión: 1010 hPa
METAR del 20-09-2021 a las 14:00 UTC
Para mayor información visite www.meteochile.cl
METAR SCGZ 201400Z 08004KT 9999 FEW040 BKN060 OVC080 05/M00 Q1010
Viento: dirección 080 grados, velocidad 4 nudos
Visibilidad: 10 km o más
Nubes: Escasa nubosidad a 4000 pies sobre el nivel del aeródromo
Nubes: Nublado a 6000 pies sobre el nivel del aeródromo
Nubes: Cubierto a 8000 pies sobre el nivel del aeródromo
Temperatura: 5 °C
Rocío: -0 °C
Humedad_relativa: 70%
Presión: 1010 hPa
METAR del 20-09-2021 a las 13:00 UTC
Para mayor información visite www.meteochile.cl
METAR SCGZ 201300Z VRB02KT 9999 BKN060 OVC080 04/M01 Q1011
Viento: dirección variable, velocidad 2 nudos
Visibilidad: 10 km o más
Nubes: Nublado a 6000 pies sobre el nivel del aeródromo
Nubes: Cubierto a 8000 pies sobre el nivel del aeródromo
Temperatura: 4 °C
Rocío: -1 °C
Humedad_relativa: 70%
Presión: 1011 hPa
METAR del 20-09-2021 a las 12:00 UTC
Para mayor información visite www.meteochile.cl
METAR SCGZ 201200Z 00000KT 9999 BKN060 OVC080 04/M03 Q1011
Visibilidad: 10 km o más
Nubes: Nublado a 6000 pies sobre el nivel del aeródromo
Nubes: Cubierto a 8000 pies sobre el nivel del aeródromo
Temperatura: 4 °C
Rocío: -3 °C
Humedad_relativa: 60%
Presión: 1011 hPa